createdAt,value
2023-02-26T00:01:27.501Z,2.32
2023-02-26T00:03:59.372Z,2.37
2023-02-26T00:06:27.597Z,2.36
2023-02-26T00:08:54.874Z,2.27
2023-02-26T00:11:22.507Z,2.29
2023-02-26T00:13:49.656Z,2.35
2023-02-26T00:17:06.373Z,2.27
2023-02-26T00:19:33.258Z,2.27
2023-02-26T00:22:00.299Z,2.39
2023-02-26T00:24:27.009Z,2.38
2023-02-26T00:26:53.921Z,2.41
2023-02-26T00:29:20.944Z,2.46
2023-02-26T00:31:47.896Z,2.45
2023-02-26T00:34:14.974Z,2.33
2023-02-26T00:36:47.534Z,2.31
2023-02-26T00:39:29.543Z,2.29
2023-02-26T00:41:56.478Z,2.23
2023-02-26T00:44:23.492Z,2.36
2023-02-26T00:47:04.023Z,2.16
2023-02-26T00:50:05.865Z,2.03
2023-02-26T00:52:55.140Z,2.06
2023-02-26T00:55:25.523Z,2.09
2023-02-26T00:57:52.892Z,2.03
2023-02-26T01:00:20.706Z,2.03
2023-02-26T01:02:48.183Z,2.16
2023-02-26T01:05:15.870Z,1.85
2023-02-26T01:08:19.522Z,1.93
2023-02-26T01:10:46.614Z,1.98
2023-02-26T01:13:13.557Z,1.90
2023-02-26T01:15:47.577Z,1.86
2023-02-26T01:18:18.707Z,1.98
2023-02-26T01:20:51.126Z,1.91
2023-02-26T01:23:26.824Z,1.71
2023-02-26T01:25:59.676Z,1.72
2023-02-26T01:28:27.131Z,1.77
2023-02-26T01:31:04.033Z,1.72
2023-02-26T01:33:40.283Z,1.59
2023-02-26T01:36:17.885Z,1.33
2023-02-26T01:39:00.579Z,1.64
2023-02-26T01:41:32.633Z,1.63
2023-02-26T01:44:08.421Z,1.75
2023-02-26T01:46:50.348Z,1.78
2023-02-26T01:49:18.915Z,1.59
2023-02-26T01:52:01.457Z,1.77
2023-02-26T01:54:34.225Z,1.57
2023-02-26T01:57:11.296Z,1.78
2023-02-26T01:59:42.054Z,1.62
2023-02-26T02:02:11.055Z,1.39
2023-02-26T02:04:39.035Z,1.55
2023-02-26T02:07:06.828Z,1.62
2023-02-26T02:09:34.786Z,1.41
2023-02-26T02:12:31.947Z,1.52
2023-02-26T02:15:11.586Z,1.60
2023-02-26T02:17:50.341Z,1.27
2023-02-26T02:20:16.852Z,1.40
2023-02-26T02:23:01.755Z,1.39
2023-02-26T02:25:51.587Z,1.42
2023-02-26T02:28:57.347Z,1.31
2023-02-26T02:31:31.784Z,1.27
2023-02-26T02:34:13.205Z,1.58
2023-02-26T02:36:46.303Z,1.38
2023-02-26T02:39:29.230Z,1.44
2023-02-26T02:42:03.791Z,1.44
2023-02-26T02:44:34.216Z,1.46
2023-02-26T02:47:01.954Z,1.37
2023-02-26T02:49:39.541Z,1.40
2023-02-26T02:52:14.040Z,1.22
2023-02-26T02:55:10.696Z,1.21
2023-02-26T02:57:46.278Z,1.34
2023-02-26T03:00:15.751Z,1.37
2023-02-26T03:03:04.699Z,1.38
2023-02-26T03:05:31.416Z,1.34
2023-02-26T03:08:06.546Z,1.37
2023-02-26T03:10:33.807Z,1.27
2023-02-26T03:13:00.583Z,1.12
2023-02-26T03:15:39.050Z,1.15
2023-02-26T03:18:22.462Z,1.11
2023-02-26T03:21:00.130Z,1.18
2023-02-26T03:23:59.378Z,1.03
2023-02-26T03:26:37.830Z,0.81
2023-02-26T03:29:15.164Z,0.83
2023-02-26T03:31:47.750Z,0.66
2023-02-26T03:34:28.726Z,0.91
2023-02-26T03:37:01.322Z,0.91
2023-02-26T03:39:39.318Z,0.77
2023-02-26T03:42:11.612Z,0.61
2023-02-26T03:44:53.107Z,0.75
2023-02-26T03:47:20.504Z,0.54
2023-02-26T03:50:09.832Z,0.52
2023-02-26T03:52:41.453Z,0.58
2023-02-26T03:55:24.157Z,0.65
2023-02-26T03:57:50.838Z,0.42
2023-02-26T04:00:18.529Z,0.39
2023-02-26T04:03:28.452Z,0.33
2023-02-26T04:05:55.834Z,0.44
2023-02-26T04:08:23.409Z,0.36
2023-02-26T04:11:11.255Z,0.38
2023-02-26T04:13:38.457Z,0.47
2023-02-26T04:16:05.500Z,0.66
2023-02-26T04:18:32.423Z,0.58
2023-02-26T04:20:59.129Z,0.57
2023-02-26T04:23:25.851Z,0.58
2023-02-26T04:25:52.573Z,0.57
2023-02-26T04:28:19.255Z,0.60
2023-02-26T04:30:46.030Z,0.64
2023-02-26T04:33:14.088Z,0.74
2023-02-26T04:35:40.795Z,0.72
2023-02-26T04:38:07.607Z,0.62
2023-02-26T04:40:34.300Z,0.59
2023-02-26T04:43:03.772Z,0.60
2023-02-26T04:45:30.436Z,0.54
2023-02-26T04:47:57.174Z,0.54
2023-02-26T04:50:23.867Z,0.52
2023-02-26T04:52:50.583Z,0.66
2023-02-26T04:55:17.541Z,0.54
2023-02-26T04:57:44.263Z,0.58
2023-02-26T05:00:11.987Z,0.57
2023-02-26T05:02:38.762Z,0.59
2023-02-26T05:05:05.724Z,0.60
2023-02-26T05:07:32.368Z,0.52
2023-02-26T05:09:59.017Z,0.46
2023-02-26T05:12:25.844Z,0.44
2023-02-26T05:14:52.544Z,0.42
2023-02-26T05:17:19.192Z,0.40
2023-02-26T05:19:45.907Z,0.48
2023-02-26T05:22:12.670Z,0.56
2023-02-26T05:24:39.391Z,0.63
2023-02-26T05:27:06.676Z,0.62
2023-02-26T05:29:33.357Z,0.60
2023-02-26T05:32:00.016Z,0.58
2023-02-26T05:34:26.799Z,0.53
2023-02-26T05:36:53.419Z,0.50
2023-02-26T05:39:20.231Z,0.56
2023-02-26T05:41:47.146Z,0.56
2023-02-26T05:44:13.850Z,0.52
2023-02-26T05:46:40.723Z,0.50
2023-02-26T05:49:07.401Z,0.48
2023-02-26T05:51:34.202Z,0.41
2023-02-26T05:54:01.088Z,0.46
2023-02-26T05:56:27.792Z,0.40
2023-02-26T05:58:54.496Z,0.34
2023-02-26T06:01:21.190Z,0.32
2023-02-26T06:03:47.854Z,0.33
2023-02-26T06:06:18.084Z,0.33
2023-02-26T06:08:46.111Z,0.31
2023-02-26T06:11:13.132Z,0.26
2023-02-26T06:13:40.253Z,0.12
2023-02-26T06:16:07.311Z,0.16
2023-02-26T06:18:34.192Z,0.10
2023-02-26T06:21:01.808Z,0.07
2023-02-26T06:23:28.432Z,0.06
2023-02-26T06:25:55.180Z,0.09
2023-02-26T06:28:24.516Z,0.07
2023-02-26T06:30:53.371Z,0.07
2023-02-26T06:33:20.359Z,0.07
2023-02-26T06:35:48.215Z,0.10
2023-02-26T06:38:15.398Z,0.20
2023-02-26T06:40:42.503Z,0.25
2023-02-26T06:43:09.170Z,0.30
2023-02-26T06:45:36.115Z,0.34
2023-02-26T06:48:04.066Z,0.43
2023-02-26T06:50:31.536Z,0.52
2023-02-26T06:52:58.236Z,0.57
2023-02-26T06:55:27.915Z,0.53
2023-02-26T06:57:55.110Z,0.79
2023-02-26T07:00:22.824Z,0.68
2023-02-26T07:02:50.944Z,0.79
2023-02-26T07:05:17.928Z,0.89
2023-02-26T07:07:44.721Z,1.05
2023-02-26T07:10:12.918Z,1.14
2023-02-26T07:12:39.619Z,1.48
2023-02-26T07:15:07.328Z,1.71
2023-02-26T07:17:34.033Z,2.16
2023-02-26T07:20:06.229Z,2.25
2023-02-26T07:22:33.907Z,2.46
2023-02-26T07:25:00.712Z,2.52
2023-02-26T07:27:27.723Z,2.95
2023-02-26T07:29:54.456Z,2.85
2023-02-26T07:32:21.967Z,2.55
2023-02-26T07:34:48.706Z,2.54
2023-02-26T07:37:15.452Z,2.59
2023-02-26T07:39:42.240Z,2.67
2023-02-26T07:42:09.461Z,2.80
2023-02-26T07:44:36.116Z,2.71
2023-02-26T07:47:03.286Z,2.61
2023-02-26T07:49:29.992Z,2.70
2023-02-26T07:51:56.649Z,3.09
2023-02-26T07:54:23.311Z,2.86
2023-02-26T07:56:50.593Z,3.16
2023-02-26T07:59:17.472Z,3.36
2023-02-26T08:01:44.268Z,3.02
2023-02-26T08:04:11.178Z,3.20
2023-02-26T08:06:38.226Z,3.39
2023-02-26T08:09:05.548Z,3.39
2023-02-26T08:11:39.573Z,3.12
2023-02-26T08:14:07.324Z,2.72
2023-02-26T08:16:33.975Z,2.61
2023-02-26T08:19:04.730Z,2.40
2023-02-26T08:21:31.578Z,2.48
2023-02-26T08:23:58.249Z,2.32
2023-02-26T08:26:25.630Z,2.42
2023-02-26T08:28:52.514Z,2.27
2023-02-26T08:31:19.433Z,2.30
2023-02-26T08:33:46.360Z,2.27
2023-02-26T08:36:13.188Z,2.19
2023-02-26T08:38:39.858Z,2.32
2023-02-26T08:41:06.736Z,2.16
2023-02-26T08:43:33.405Z,2.19
2023-02-26T08:46:00.631Z,2.31
2023-02-26T08:48:27.430Z,2.34
2023-02-26T08:50:54.455Z,2.23
2023-02-26T08:53:21.288Z,2.21
2023-02-26T08:55:50.248Z,2.25
2023-02-26T08:58:17.627Z,2.37
2023-02-26T09:00:44.981Z,2.70
2023-02-26T09:03:11.949Z,2.80
2023-02-26T09:05:39.057Z,3.11
2023-02-26T09:08:20.612Z,3.13
2023-02-26T09:10:47.812Z,3.04
2023-02-26T09:13:14.486Z,3.05
2023-02-26T09:15:41.459Z,3.18
2023-02-26T09:18:15.237Z,3.34
2023-02-26T09:20:43.684Z,3.11
2023-02-26T09:23:10.439Z,3.19
2023-02-26T09:25:37.445Z,3.32
2023-02-26T09:28:04.789Z,3.33
2023-02-26T09:30:31.928Z,3.22
2023-02-26T09:32:58.872Z,3.05
2023-02-26T09:35:25.745Z,3.17
2023-02-26T09:37:52.443Z,3.25
2023-02-26T09:40:39.350Z,3.54
2023-02-26T09:43:24.830Z,3.95
2023-02-26T09:45:53.777Z,3.93
2023-02-26T09:48:21.783Z,3.93
2023-02-26T09:50:52.958Z,3.59
2023-02-26T09:53:28.060Z,3.51
2023-02-26T09:56:01.553Z,3.49
2023-02-26T09:58:38.933Z,3.42
2023-02-26T10:01:43.835Z,3.72
2023-02-26T10:04:22.032Z,3.90
2023-02-26T10:07:20.352Z,3.71
2023-02-26T10:10:20.206Z,3.75
2023-02-26T10:12:51.366Z,3.80
2023-02-26T10:15:32.343Z,3.75
2023-02-26T10:18:09.539Z,3.96
2023-02-26T10:20:44.947Z,3.92
2023-02-26T10:23:50.334Z,4.37
2023-02-26T10:26:23.944Z,4.15
2023-02-26T10:28:56.833Z,4.36
2023-02-26T10:31:30.013Z,4.49
2023-02-26T10:34:11.908Z,4.42
2023-02-26T10:37:12.992Z,4.93
2023-02-26T10:39:51.826Z,4.78
2023-02-26T10:42:26.107Z,4.78
2023-02-26T10:45:15.075Z,4.95
2023-02-26T10:48:12.899Z,4.97
2023-02-26T10:50:48.593Z,4.69
2023-02-26T10:53:15.419Z,4.66
2023-02-26T10:55:51.529Z,5.08
2023-02-26T10:58:23.684Z,4.67
2023-02-26T11:00:53.934Z,5.18
2023-02-26T11:03:34.651Z,4.89
2023-02-26T11:06:06.711Z,4.78
2023-02-26T11:08:45.338Z,4.97
2023-02-26T11:11:40.499Z,5.21
2023-02-26T11:14:08.600Z,5.23
2023-02-26T11:16:41.951Z,5.26
2023-02-26T11:19:09.224Z,5.29
2023-02-26T11:21:40.898Z,5.01
2023-02-26T11:24:21.762Z,4.56
2023-02-26T11:26:51.798Z,4.69
2023-02-26T11:29:21.512Z,4.56
2023-02-26T11:31:53.012Z,4.96
2023-02-26T11:34:24.141Z,5.09
2023-02-26T11:36:52.014Z,5.36
2023-02-26T11:39:25.419Z,5.30
2023-02-26T11:41:55.560Z,5.35
2023-02-26T11:44:35.171Z,5.08
2023-02-26T11:47:07.176Z,5.27
2023-02-26T11:49:34.373Z,5.34
2023-02-26T11:52:28.155Z,5.15
2023-02-26T11:55:02.343Z,4.99
2023-02-26T11:57:31.552Z,5.01
2023-02-26T12:00:01.777Z,4.81
2023-02-26T12:02:36.859Z,5.44
2023-02-26T12:05:06.755Z,5.43
2023-02-26T12:07:33.734Z,5.41
2023-02-26T12:10:00.518Z,5.27
2023-02-26T12:12:55.248Z,5.34
2023-02-26T12:15:39.262Z,5.53
2023-02-26T12:18:12.378Z,5.84
2023-02-26T12:20:45.118Z,5.68
2023-02-26T12:23:32.962Z,5.03
2023-02-26T12:26:08.638Z,5.16
2023-02-26T12:28:51.923Z,5.32
2023-02-26T12:31:43.266Z,5.13
2023-02-26T12:34:23.113Z,5.72
2023-02-26T12:37:05.025Z,5.80
2023-02-26T12:39:46.926Z,5.75
2023-02-26T12:42:25.857Z,5.30
2023-02-26T12:45:06.270Z,5.61
2023-02-26T12:47:48.674Z,5.77
2023-02-26T12:50:41.554Z,5.64
2023-02-26T12:53:29.999Z,5.30
2023-02-26T12:56:33.664Z,5.70
2023-02-26T12:59:19.943Z,5.54
2023-02-26T13:02:05.497Z,5.48
2023-02-26T13:04:53.381Z,5.19
2023-02-26T13:07:52.215Z,5.45
2023-02-26T13:10:18.809Z,5.77
2023-02-26T13:13:07.384Z,6.10
2023-02-26T13:15:33.966Z,5.94
2023-02-26T13:18:30.727Z,5.72
2023-02-26T13:21:13.518Z,5.30
2023-02-26T13:23:51.704Z,4.80
2023-02-26T13:26:19.749Z,5.25
2023-02-26T13:29:06.127Z,5.43
2023-02-26T13:31:39.331Z,6.03
2023-02-26T13:34:13.807Z,6.26
2023-02-26T13:36:40.952Z,6.07
2023-02-26T13:39:13.872Z,6.04
2023-02-26T13:42:03.454Z,5.86
2023-02-26T13:44:33.090Z,5.46
2023-02-26T13:47:45.623Z,5.85
2023-02-26T13:50:24.546Z,5.54
2023-02-26T13:53:16.477Z,5.49
2023-02-26T13:55:47.314Z,5.28
2023-02-26T13:58:24.508Z,5.35
2023-02-26T14:01:04.034Z,5.33
2023-02-26T14:03:36.083Z,5.19
2023-02-26T14:06:40.206Z,5.60
2023-02-26T14:09:31.364Z,5.78
2023-02-26T14:12:02.247Z,5.79
2023-02-26T14:14:45.663Z,5.58
2023-02-26T14:17:12.299Z,5.27
2023-02-26T14:20:08.642Z,5.45
2023-02-26T14:22:41.714Z,5.38
2023-02-26T14:25:28.163Z,5.58
2023-02-26T14:28:29.546Z,6.11
2023-02-26T14:31:11.694Z,6.10
2023-02-26T14:33:57.941Z,6.19
2023-02-26T14:36:35.592Z,6.00
2023-02-26T14:39:06.422Z,5.79
2023-02-26T14:41:39.124Z,5.64
2023-02-26T14:44:21.007Z,5.25
2023-02-26T14:46:49.730Z,5.22
2023-02-26T14:49:27.815Z,5.26
2023-02-26T14:52:16.050Z,5.22
2023-02-26T14:54:45.655Z,5.31
2023-02-26T14:57:35.965Z,5.11
2023-02-26T15:00:31.695Z,4.92
2023-02-26T15:03:22.442Z,4.75
2023-02-26T15:06:07.935Z,5.08
2023-02-26T15:09:05.404Z,4.84
2023-02-26T15:12:03.075Z,5.23
2023-02-26T15:14:38.711Z,5.06
2023-02-26T15:17:36.363Z,5.18
2023-02-26T15:20:26.927Z,4.94
2023-02-26T15:23:11.739Z,5.16
2023-02-26T15:25:42.179Z,5.10
2023-02-26T15:28:17.997Z,5.17
2023-02-26T15:30:48.750Z,4.96
2023-02-26T15:33:19.494Z,4.83
2023-02-26T15:35:48.945Z,4.82
2023-02-26T15:38:16.213Z,4.76
2023-02-26T15:40:43.478Z,4.78
2023-02-26T15:43:15.732Z,4.97
2023-02-26T15:45:48.150Z,4.55
2023-02-26T15:48:21.806Z,4.34
2023-02-26T15:50:54.613Z,4.21
2023-02-26T15:53:30.898Z,4.34
2023-02-26T15:56:00.365Z,4.22
2023-02-26T15:58:53.477Z,4.11
2023-02-26T16:01:25.331Z,4.12
2023-02-26T16:03:56.618Z,4.01
2023-02-26T16:06:36.216Z,4.16
2023-02-26T16:09:06.118Z,4.07
2023-02-26T16:11:36.779Z,4.00
2023-02-26T16:14:05.228Z,4.06
2023-02-26T16:16:45.180Z,3.85
2023-02-26T16:19:20.951Z,3.76
2023-02-26T16:21:48.939Z,3.68
2023-02-26T16:24:19.572Z,3.70
2023-02-26T16:26:56.081Z,3.58
2023-02-26T16:29:30.034Z,3.47
2023-02-26T16:31:59.577Z,3.40
2023-02-26T16:34:45.933Z,3.41
2023-02-26T16:37:33.883Z,3.41
2023-02-26T16:40:12.820Z,3.24
2023-02-26T16:42:52.716Z,3.10
2023-02-26T16:45:37.835Z,2.95
2023-02-26T16:48:19.165Z,2.86
2023-02-26T16:51:00.828Z,2.67
2023-02-26T16:53:45.232Z,2.77
2023-02-26T16:56:16.839Z,2.70
2023-02-26T16:58:47.779Z,2.43
2023-02-26T17:01:18.818Z,2.56
2023-02-26T17:03:55.913Z,2.32
2023-02-26T17:06:23.063Z,2.06
2023-02-26T17:08:52.650Z,1.95
2023-02-26T17:11:33.278Z,1.79
2023-02-26T17:14:24.353Z,1.72
2023-02-26T17:16:52.329Z,1.64
2023-02-26T17:19:20.484Z,1.56
2023-02-26T17:21:50.398Z,1.56
2023-02-26T17:24:21.415Z,1.59
2023-02-26T17:26:48.812Z,1.54
2023-02-26T17:29:23.493Z,1.45
2023-02-26T17:31:51.485Z,1.36
2023-02-26T17:34:21.246Z,1.28
2023-02-26T17:36:49.264Z,1.28
2023-02-26T17:39:16.321Z,1.38
2023-02-26T17:41:44.539Z,1.45
2023-02-26T17:44:12.231Z,1.44
2023-02-26T17:46:39.055Z,1.31
2023-02-26T17:49:06.329Z,1.35
2023-02-26T17:51:33.564Z,1.50
2023-02-26T17:54:00.670Z,1.46
2023-02-26T17:56:33.512Z,1.47
2023-02-26T17:59:04.148Z,1.35
2023-02-26T18:01:31.662Z,1.44
2023-02-26T18:04:00.877Z,1.42
2023-02-26T18:06:33.356Z,1.55
2023-02-26T18:09:01.071Z,1.58
2023-02-26T18:11:29.081Z,1.51
2023-02-26T18:13:56.853Z,1.40
2023-02-26T18:16:32.035Z,1.51
2023-02-26T18:18:59.797Z,1.47
2023-02-26T18:21:27.337Z,1.43
2023-02-26T18:23:57.580Z,1.37
2023-02-26T18:26:27.878Z,1.38
2023-02-26T18:28:55.703Z,1.62
2023-02-26T18:31:24.815Z,1.50
2023-02-26T18:33:51.666Z,1.46
2023-02-26T18:36:29.825Z,1.41
2023-02-26T18:39:02.202Z,1.42
2023-02-26T18:41:30.912Z,1.39
2023-02-26T18:43:57.641Z,1.25
2023-02-26T18:46:25.433Z,1.22
2023-02-26T18:48:52.120Z,1.07
2023-02-26T18:51:18.951Z,0.84
2023-02-26T18:53:45.748Z,0.73
2023-02-26T18:56:12.935Z,0.66
2023-02-26T18:58:40.604Z,0.63
2023-02-26T19:01:07.549Z,0.57
2023-02-26T19:03:34.297Z,0.52
2023-02-26T19:06:06.368Z,0.37
2023-02-26T19:08:33.301Z,0.22
2023-02-26T19:11:00.289Z,0.11
2023-02-26T19:13:27.192Z,0.11
2023-02-26T19:15:53.901Z,0.14
2023-02-26T19:18:21.159Z,0.07
2023-02-26T19:20:47.958Z,0.00
2023-02-26T19:23:14.707Z,0.03
2023-02-26T19:25:42.732Z,0.01
2023-02-26T19:28:09.857Z,0.11
2023-02-26T19:30:38.453Z,0.17
2023-02-26T19:33:05.930Z,0.20
2023-02-26T19:35:33.098Z,0.22
2023-02-26T19:37:59.756Z,0.18
2023-02-26T19:40:28.234Z,0.13
2023-02-26T19:42:55.279Z,0.08
2023-02-26T19:45:22.178Z,0.00
2023-02-26T19:47:48.832Z,-0.21
2023-02-26T19:50:16.791Z,-0.33
2023-02-26T19:52:43.554Z,-0.30
2023-02-26T19:55:14.582Z,-0.31
2023-02-26T19:57:41.467Z,-0.35
2023-02-26T20:00:08.936Z,-0.44
2023-02-26T20:02:35.668Z,-0.23
2023-02-26T20:05:03.791Z,-0.17
2023-02-26T20:07:30.435Z,-0.16
2023-02-26T20:09:57.236Z,-0.05
2023-02-26T20:12:23.977Z,0.06
2023-02-26T20:14:51.049Z,0.20
2023-02-26T20:17:17.707Z,0.30
2023-02-26T20:19:44.796Z,0.24
2023-02-26T20:22:11.743Z,0.08
2023-02-26T20:24:38.404Z,0.00
2023-02-26T20:27:07.103Z,-0.09
2023-02-26T20:29:33.902Z,-0.18
2023-02-26T20:32:00.895Z,-0.29
2023-02-26T20:34:27.828Z,-0.37
2023-02-26T20:36:55.811Z,-0.49
2023-02-26T20:39:23.713Z,-0.60
2023-02-26T20:41:50.837Z,-0.78
2023-02-26T20:44:20.125Z,-0.76
2023-02-26T20:46:47.122Z,-0.64
2023-02-26T20:49:13.824Z,-0.22
2023-02-26T20:51:42.035Z,0.04
2023-02-26T20:54:10.433Z,0.03
2023-02-26T20:56:37.101Z,-0.09
2023-02-26T20:59:03.763Z,-0.18
2023-02-26T21:01:35.581Z,-0.38
2023-02-26T21:04:07.525Z,-0.63
2023-02-26T21:06:35.158Z,-0.67
2023-02-26T21:09:03.028Z,-0.66
2023-02-26T21:11:31.472Z,-0.69
2023-02-26T21:13:59.303Z,-0.74
2023-02-26T21:16:28.498Z,-0.77
2023-02-26T21:18:56.724Z,-0.79
2023-02-26T21:21:23.882Z,-0.79
2023-02-26T21:23:53.007Z,-0.78
2023-02-26T21:26:23.630Z,-0.84
2023-02-26T21:28:50.646Z,-0.96
2023-02-26T21:31:19.534Z,-1.27
2023-02-26T21:33:46.633Z,-1.29
2023-02-26T21:36:14.117Z,-1.35
2023-02-26T21:38:40.925Z,-1.27
2023-02-26T21:41:07.722Z,-1.24
2023-02-26T21:43:34.426Z,-1.18
2023-02-26T21:46:01.261Z,-1.17
2023-02-26T21:48:27.967Z,-1.15
2023-02-26T21:50:56.582Z,-1.16
2023-02-26T21:53:23.946Z,-1.16
2023-02-26T21:55:50.909Z,-1.16
2023-02-26T21:58:17.697Z,-1.35
2023-02-26T22:00:44.710Z,-1.37
2023-02-26T22:03:11.507Z,-1.31
2023-02-26T22:05:38.179Z,-1.33
2023-02-26T22:08:04.953Z,-1.36
2023-02-26T22:10:32.267Z,-1.35
2023-02-26T22:12:59.009Z,-1.39
2023-02-26T22:15:25.903Z,-1.40
2023-02-26T22:17:52.630Z,-1.39
2023-02-26T22:20:19.609Z,-1.39
2023-02-26T22:22:46.454Z,-1.47
2023-02-26T22:25:13.520Z,-1.69
2023-02-26T22:27:40.251Z,-1.88
2023-02-26T22:30:08.056Z,-1.85
2023-02-26T22:32:35.155Z,-1.86
2023-02-26T22:35:01.934Z,-1.70
2023-02-26T22:37:28.721Z,-1.66
2023-02-26T22:39:55.466Z,-1.77
2023-02-26T22:42:22.438Z,-1.71
2023-02-26T22:44:49.085Z,-1.67
2023-02-26T22:47:15.957Z,-1.82
2023-02-26T22:49:42.699Z,-1.77
2023-02-26T22:52:10.834Z,-1.72
2023-02-26T22:54:39.019Z,-1.78
2023-02-26T22:57:06.273Z,-1.75
2023-02-26T22:59:33.025Z,-1.72
2023-02-26T23:01:59.786Z,-1.69
2023-02-26T23:04:26.731Z,-1.69
2023-02-26T23:06:53.402Z,-1.89
2023-02-26T23:09:20.150Z,-2.06
2023-02-26T23:11:47.320Z,-2.18
2023-02-26T23:14:14.052Z,-2.20
2023-02-26T23:16:40.779Z,-2.18
2023-02-26T23:19:07.830Z,-2.18
2023-02-26T23:21:34.637Z,-2.15
2023-02-26T23:24:01.426Z,-2.11
2023-02-26T23:26:28.487Z,-2.05
2023-02-26T23:28:55.201Z,-2.01
2023-02-26T23:31:22.292Z,-2.01
2023-02-26T23:33:48.968Z,-2.03
2023-02-26T23:36:15.945Z,-2.02
2023-02-26T23:38:42.830Z,-2.04
2023-02-26T23:41:09.815Z,-2.05
2023-02-26T23:43:36.486Z,-2.04
2023-02-26T23:46:03.204Z,-2.04
2023-02-26T23:48:30.063Z,-1.97
2023-02-26T23:50:56.776Z,-2.00
2023-02-26T23:53:23.603Z,-2.01
2023-02-26T23:55:52.550Z,-2.02
2023-02-26T23:58:19.280Z,-2.03
